sensor_id;sensor_type;location;lat;lon;timestamp;P1;durP1;ratioP1;P2;durP2;ratioP2
6113;SDS011;3087;48.392;10.836;2023-01-19T00:02:19;10.57;;;9.10;;
6113;SDS011;3087;48.392;10.836;2023-01-19T00:04:45;13.03;;;9.57;;
6113;SDS011;3087;48.392;10.836;2023-01-19T00:07:11;10.90;;;8.70;;
6113;SDS011;3087;48.392;10.836;2023-01-19T00:09:36;11.67;;;8.87;;
6113;SDS011;3087;48.392;10.836;2023-01-19T00:12:02;9.97;;;8.57;;
6113;SDS011;3087;48.392;10.836;2023-01-19T00:14:29;10.57;;;8.30;;
6113;SDS011;3087;48.392;10.836;2023-01-19T00:16:55;11.07;;;8.80;;
6113;SDS011;3087;48.392;10.836;2023-01-19T00:19:20;11.87;;;8.87;;
6113;SDS011;3087;48.392;10.836;2023-01-19T00:21:46;10.67;;;8.30;;
6113;SDS011;3087;48.392;10.836;2023-01-19T00:24:12;13.70;;;9.20;;
6113;SDS011;3087;48.392;10.836;2023-01-19T00:26:38;10.83;;;8.53;;
6113;SDS011;3087;48.392;10.836;2023-01-19T00:29:06;12.23;;;8.73;;
6113;SDS011;3087;48.392;10.836;2023-01-19T00:31:34;8.93;;;7.90;;
6113;SDS011;3087;48.392;10.836;2023-01-19T00:33:59;15.73;;;9.13;;
6113;SDS011;3087;48.392;10.836;2023-01-19T00:36:25;9.70;;;8.40;;
6113;SDS011;3087;48.392;10.836;2023-01-19T00:38:50;12.57;;;8.07;;
6113;SDS011;3087;48.392;10.836;2023-01-19T00:41:16;13.03;;;8.87;;
6113;SDS011;3087;48.392;10.836;2023-01-19T00:43:42;11.23;;;8.73;;
6113;SDS011;3087;48.392;10.836;2023-01-19T00:46:08;10.03;;;8.10;;
6113;SDS011;3087;48.392;10.836;2023-01-19T00:48:33;8.70;;;7.80;;
6113;SDS011;3087;48.392;10.836;2023-01-19T00:50:59;11.70;;;8.83;;
6113;SDS011;3087;48.392;10.836;2023-01-19T00:53:25;10.03;;;8.13;;
6113;SDS011;3087;48.392;10.836;2023-01-19T00:55:53;9.57;;;8.17;;
6113;SDS011;3087;48.392;10.836;2023-01-19T00:58:19;9.43;;;7.90;;
6113;SDS011;3087;48.392;10.836;2023-01-19T01:00:46;11.37;;;8.73;;
6113;SDS011;3087;48.392;10.836;2023-01-19T01:03:12;11.73;;;8.63;;
6113;SDS011;3087;48.392;10.836;2023-01-19T01:05:39;11.23;;;8.23;;
6113;SDS011;3087;48.392;10.836;2023-01-19T01:08:06;10.73;;;7.70;;
6113;SDS011;3087;48.392;10.836;2023-01-19T01:10:31;11.33;;;7.93;;
6113;SDS011;3087;48.392;10.836;2023-01-19T01:12:57;11.80;;;8.43;;
6113;SDS011;3087;48.392;10.836;2023-01-19T01:15:23;9.43;;;7.83;;
6113;SDS011;3087;48.392;10.836;2023-01-19T01:17:50;11.57;;;9.63;;
6113;SDS011;3087;48.392;10.836;2023-01-19T01:20:18;10.30;;;8.00;;
6113;SDS011;3087;48.392;10.836;2023-01-19T01:22:46;10.57;;;8.47;;
6113;SDS011;3087;48.392;10.836;2023-01-19T01:25:14;11.77;;;9.00;;
6113;SDS011;3087;48.392;10.836;2023-01-19T01:27:41;9.23;;;8.23;;
6113;SDS011;3087;48.392;10.836;2023-01-19T01:30:08;10.80;;;8.10;;
6113;SDS011;3087;48.392;10.836;2023-01-19T01:32:35;11.40;;;8.47;;
6113;SDS011;3087;48.392;10.836;2023-01-19T01:35:01;12.37;;;8.13;;
6113;SDS011;3087;48.392;10.836;2023-01-19T01:37:27;12.63;;;9.03;;
6113;SDS011;3087;48.392;10.836;2023-01-19T01:39:52;13.17;;;9.07;;
6113;SDS011;3087;48.392;10.836;2023-01-19T01:42:18;13.20;;;9.23;;
6113;SDS011;3087;48.392;10.836;2023-01-19T01:44:50;13.47;;;9.30;;
6113;SDS011;3087;48.392;10.836;2023-01-19T01:47:38;12.13;;;8.73;;
6113;SDS011;3087;48.392;10.836;2023-01-19T01:50:11;12.07;;;9.90;;
6113;SDS011;3087;48.392;10.836;2023-01-19T01:52:45;13.10;;;8.20;;
6113;SDS011;3087;48.392;10.836;2023-01-19T01:55:14;14.23;;;8.57;;
6113;SDS011;3087;48.392;10.836;2023-01-19T01:57:46;13.53;;;9.33;;
6113;SDS011;3087;48.392;10.836;2023-01-19T02:00:16;11.47;;;9.20;;
6113;SDS011;3087;48.392;10.836;2023-01-19T02:02:42;12.70;;;8.67;;
6113;SDS011;3087;48.392;10.836;2023-01-19T02:05:16;13.90;;;8.60;;
6113;SDS011;3087;48.392;10.836;2023-01-19T02:08:02;12.37;;;8.67;;
6113;SDS011;3087;48.392;10.836;2023-01-19T02:10:47;11.47;;;9.03;;
6113;SDS011;3087;48.392;10.836;2023-01-19T02:13:33;11.37;;;8.60;;
6113;SDS011;3087;48.392;10.836;2023-01-19T02:16:04;11.50;;;9.00;;
6113;SDS011;3087;48.392;10.836;2023-01-19T02:18:32;12.43;;;9.53;;
6113;SDS011;3087;48.392;10.836;2023-01-19T02:21:01;12.27;;;8.93;;
6113;SDS011;3087;48.392;10.836;2023-01-19T02:25:56;11.90;;;9.70;;
6113;SDS011;3087;48.392;10.836;2023-01-19T02:28:23;12.20;;;9.70;;
6113;SDS011;3087;48.392;10.836;2023-01-19T02:30:50;10.43;;;8.43;;
6113;SDS011;3087;48.392;10.836;2023-01-19T02:33:16;11.23;;;8.73;;
6113;SDS011;3087;48.392;10.836;2023-01-19T02:35:42;12.53;;;9.90;;
6113;SDS011;3087;48.392;10.836;2023-01-19T02:38:09;12.50;;;8.97;;
6113;SDS011;3087;48.392;10.836;2023-01-19T02:40:37;10.00;;;8.20;;
6113;SDS011;3087;48.392;10.836;2023-01-19T02:43:05;10.60;;;8.57;;
6113;SDS011;3087;48.392;10.836;2023-01-19T02:45:32;11.60;;;8.80;;
6113;SDS011;3087;48.392;10.836;2023-01-19T02:47:59;11.63;;;8.20;;
6113;SDS011;3087;48.392;10.836;2023-01-19T02:52:58;11.60;;;8.87;;
6113;SDS011;3087;48.392;10.836;2023-01-19T02:55:51;11.40;;;9.13;;
6113;SDS011;3087;48.392;10.836;2023-01-19T02:58:36;11.83;;;9.47;;
6113;SDS011;3087;48.392;10.836;2023-01-19T03:01:18;14.20;;;9.23;;
6113;SDS011;3087;48.392;10.836;2023-01-19T03:03:54;13.37;;;9.10;;
6113;SDS011;3087;48.392;10.836;2023-01-19T03:06:46;13.30;;;9.13;;
6113;SDS011;3087;48.392;10.836;2023-01-19T03:09:41;12.67;;;9.07;;
6113;SDS011;3087;48.392;10.836;2023-01-19T03:14:54;11.20;;;8.70;;
6113;SDS011;3087;48.392;10.836;2023-01-19T03:17:25;15.20;;;8.97;;
6113;SDS011;3087;48.392;10.836;2023-01-19T03:19:54;11.60;;;9.17;;
6113;SDS011;3087;48.392;10.836;2023-01-19T03:22:23;12.97;;;8.90;;
6113;SDS011;3087;48.392;10.836;2023-01-19T03:24:51;13.40;;;8.97;;
6113;SDS011;3087;48.392;10.836;2023-01-19T03:29:51;10.97;;;8.27;;
6113;SDS011;3087;48.392;10.836;2023-01-19T03:32:24;12.00;;;8.80;;
6113;SDS011;3087;48.392;10.836;2023-01-19T03:34:57;11.73;;;8.30;;
6113;SDS011;3087;48.392;10.836;2023-01-19T03:37:24;11.73;;;8.37;;
6113;SDS011;3087;48.392;10.836;2023-01-19T03:39:52;10.37;;;9.07;;
6113;SDS011;3087;48.392;10.836;2023-01-19T03:42:19;9.43;;;8.33;;
6113;SDS011;3087;48.392;10.836;2023-01-19T03:44:45;14.70;;;8.83;;
6113;SDS011;3087;48.392;10.836;2023-01-19T03:47:14;10.57;;;8.60;;
6113;SDS011;3087;48.392;10.836;2023-01-19T03:49:42;12.33;;;8.60;;
6113;SDS011;3087;48.392;10.836;2023-01-19T03:52:09;12.27;;;8.53;;
6113;SDS011;3087;48.392;10.836;2023-01-19T03:54:35;11.37;;;8.23;;
6113;SDS011;3087;48.392;10.836;2023-01-19T03:57:01;11.57;;;8.03;;
6113;SDS011;3087;48.392;10.836;2023-01-19T03:59:26;13.67;;;8.70;;
6113;SDS011;3087;48.392;10.836;2023-01-19T04:01:52;11.53;;;9.10;;
6113;SDS011;3087;48.392;10.836;2023-01-19T04:04:17;10.30;;;8.37;;
6113;SDS011;3087;48.392;10.836;2023-01-19T04:06:43;13.17;;;8.90;;
6113;SDS011;3087;48.392;10.836;2023-01-19T04:09:08;11.20;;;8.70;;
6113;SDS011;3087;48.392;10.836;2023-01-19T04:11:34;11.97;;;8.07;;
6113;SDS011;3087;48.392;10.836;2023-01-19T04:13:59;11.30;;;9.13;;
6113;SDS011;3087;48.392;10.836;2023-01-19T04:16:25;14.13;;;8.67;;
6113;SDS011;3087;48.392;10.836;2023-01-19T04:18:51;9.73;;;8.17;;
6113;SDS011;3087;48.392;10.836;2023-01-19T04:21:17;11.03;;;9.00;;
6113;SDS011;3087;48.392;10.836;2023-01-19T04:23:44;11.67;;;8.97;;
6113;SDS011;3087;48.392;10.836;2023-01-19T04:26:10;13.63;;;8.87;;
6113;SDS011;3087;48.392;10.836;2023-01-19T04:28:36;9.70;;;8.10;;
6113;SDS011;3087;48.392;10.836;2023-01-19T04:31:02;16.33;;;8.93;;
6113;SDS011;3087;48.392;10.836;2023-01-19T04:33:29;13.30;;;9.27;;
6113;SDS011;3087;48.392;10.836;2023-01-19T04:35:54;12.97;;;9.40;;
6113;SDS011;3087;48.392;10.836;2023-01-19T04:38:21;11.73;;;8.93;;
6113;SDS011;3087;48.392;10.836;2023-01-19T04:40:48;13.13;;;9.03;;
6113;SDS011;3087;48.392;10.836;2023-01-19T04:43:14;13.77;;;9.70;;
6113;SDS011;3087;48.392;10.836;2023-01-19T04:45:40;11.43;;;9.30;;
6113;SDS011;3087;48.392;10.836;2023-01-19T04:48:08;11.90;;;9.07;;
6113;SDS011;3087;48.392;10.836;2023-01-19T04:50:35;11.03;;;8.57;;
6113;SDS011;3087;48.392;10.836;2023-01-19T04:53:01;12.17;;;9.00;;
6113;SDS011;3087;48.392;10.836;2023-01-19T04:55:27;10.43;;;8.73;;
6113;SDS011;3087;48.392;10.836;2023-01-19T04:57:52;13.57;;;9.70;;
6113;SDS011;3087;48.392;10.836;2023-01-19T05:00:18;12.50;;;10.07;;
6113;SDS011;3087;48.392;10.836;2023-01-19T05:02:45;15.40;;;10.47;;
6113;SDS011;3087;48.392;10.836;2023-01-19T05:05:11;11.60;;;9.70;;
6113;SDS011;3087;48.392;10.836;2023-01-19T05:07:37;13.50;;;10.47;;
6113;SDS011;3087;48.392;10.836;2023-01-19T05:10:03;15.33;;;9.97;;
6113;SDS011;3087;48.392;10.836;2023-01-19T05:12:29;12.03;;;9.37;;
6113;SDS011;3087;48.392;10.836;2023-01-19T05:14:55;11.80;;;10.00;;
6113;SDS011;3087;48.392;10.836;2023-01-19T05:17:20;10.57;;;8.90;;
6113;SDS011;3087;48.392;10.836;2023-01-19T05:19:46;12.20;;;9.70;;
6113;SDS011;3087;48.392;10.836;2023-01-19T05:22:12;11.07;;;9.67;;
6113;SDS011;3087;48.392;10.836;2023-01-19T05:24:39;15.90;;;10.87;;
6113;SDS011;3087;48.392;10.836;2023-01-19T05:27:04;11.87;;;9.80;;
6113;SDS011;3087;48.392;10.836;2023-01-19T05:29:30;13.83;;;10.80;;
6113;SDS011;3087;48.392;10.836;2023-01-19T05:31:56;15.00;;;9.83;;
6113;SDS011;3087;48.392;10.836;2023-01-19T05:34:22;14.87;;;9.27;;
6113;SDS011;3087;48.392;10.836;2023-01-19T05:36:47;13.97;;;10.30;;
6113;SDS011;3087;48.392;10.836;2023-01-19T05:39:13;11.63;;;9.80;;
6113;SDS011;3087;48.392;10.836;2023-01-19T05:41:38;14.10;;;10.33;;
6113;SDS011;3087;48.392;10.836;2023-01-19T05:44:05;14.30;;;11.00;;
6113;SDS011;3087;48.392;10.836;2023-01-19T05:46:32;14.47;;;10.00;;
6113;SDS011;3087;48.392;10.836;2023-01-19T05:48:58;15.47;;;12.30;;
6113;SDS011;3087;48.392;10.836;2023-01-19T05:51:28;16.77;;;10.90;;
6113;SDS011;3087;48.392;10.836;2023-01-19T05:53:58;16.33;;;11.23;;
6113;SDS011;3087;48.392;10.836;2023-01-19T05:56:28;16.07;;;9.50;;
6113;SDS011;3087;48.392;10.836;2023-01-19T05:58:54;15.67;;;10.87;;
6113;SDS011;3087;48.392;10.836;2023-01-19T06:01:20;13.03;;;10.20;;
6113;SDS011;3087;48.392;10.836;2023-01-19T06:03:46;17.00;;;11.17;;
6113;SDS011;3087;48.392;10.836;2023-01-19T06:06:12;16.57;;;10.67;;
6113;SDS011;3087;48.392;10.836;2023-01-19T06:08:39;13.50;;;10.70;;
6113;SDS011;3087;48.392;10.836;2023-01-19T06:11:05;13.80;;;10.97;;
6113;SDS011;3087;48.392;10.836;2023-01-19T06:13:31;14.60;;;10.60;;
6113;SDS011;3087;48.392;10.836;2023-01-19T06:15:57;15.03;;;10.57;;
6113;SDS011;3087;48.392;10.836;2023-01-19T06:18:24;14.70;;;10.93;;
6113;SDS011;3087;48.392;10.836;2023-01-19T06:20:49;14.27;;;11.13;;
6113;SDS011;3087;48.392;10.836;2023-01-19T06:23:16;16.07;;;10.83;;
6113;SDS011;3087;48.392;10.836;2023-01-19T06:25:42;13.83;;;10.73;;
6113;SDS011;3087;48.392;10.836;2023-01-19T06:28:07;16.73;;;11.17;;
6113;SDS011;3087;48.392;10.836;2023-01-19T06:30:33;14.13;;;10.80;;
6113;SDS011;3087;48.392;10.836;2023-01-19T06:32:58;14.53;;;11.13;;
6113;SDS011;3087;48.392;10.836;2023-01-19T06:35:24;16.93;;;10.03;;
6113;SDS011;3087;48.392;10.836;2023-01-19T06:37:51;14.67;;;10.70;;
6113;SDS011;3087;48.392;10.836;2023-01-19T06:40:17;13.57;;;9.67;;
6113;SDS011;3087;48.392;10.836;2023-01-19T06:42:42;16.80;;;10.37;;
6113;SDS011;3087;48.392;10.836;2023-01-19T06:45:08;12.87;;;10.27;;
6113;SDS011;3087;48.392;10.836;2023-01-19T06:47:34;13.30;;;10.13;;
6113;SDS011;3087;48.392;10.836;2023-01-19T06:50:00;16.30;;;11.47;;
6113;SDS011;3087;48.392;10.836;2023-01-19T06:52:26;14.23;;;10.60;;
6113;SDS011;3087;48.392;10.836;2023-01-19T06:54:52;12.77;;;10.87;;
6113;SDS011;3087;48.392;10.836;2023-01-19T06:57:18;17.93;;;11.03;;
6113;SDS011;3087;48.392;10.836;2023-01-19T06:59:43;20.40;;;12.17;;
6113;SDS011;3087;48.392;10.836;2023-01-19T07:02:09;17.93;;;10.90;;
6113;SDS011;3087;48.392;10.836;2023-01-19T07:04:35;14.30;;;10.53;;
6113;SDS011;3087;48.392;10.836;2023-01-19T07:07:01;15.83;;;10.73;;
6113;SDS011;3087;48.392;10.836;2023-01-19T07:09:26;13.03;;;10.37;;
6113;SDS011;3087;48.392;10.836;2023-01-19T07:11:53;19.07;;;10.53;;
6113;SDS011;3087;48.392;10.836;2023-01-19T07:14:19;15.30;;;10.00;;
6113;SDS011;3087;48.392;10.836;2023-01-19T07:16:45;16.07;;;10.53;;
6113;SDS011;3087;48.392;10.836;2023-01-19T07:19:11;14.33;;;10.70;;
6113;SDS011;3087;48.392;10.836;2023-01-19T07:21:38;15.03;;;9.70;;
6113;SDS011;3087;48.392;10.836;2023-01-19T07:24:04;14.03;;;10.07;;
6113;SDS011;3087;48.392;10.836;2023-01-19T07:26:30;13.60;;;10.07;;
6113;SDS011;3087;48.392;10.836;2023-01-19T07:28:55;13.13;;;10.27;;
6113;SDS011;3087;48.392;10.836;2023-01-19T07:31:21;14.53;;;10.30;;
6113;SDS011;3087;48.392;10.836;2023-01-19T07:33:46;12.97;;;9.60;;
6113;SDS011;3087;48.392;10.836;2023-01-19T07:36:12;11.80;;;9.57;;
6113;SDS011;3087;48.392;10.836;2023-01-19T07:38:38;12.33;;;10.03;;
6113;SDS011;3087;48.392;10.836;2023-01-19T07:41:04;13.23;;;10.60;;
6113;SDS011;3087;48.392;10.836;2023-01-19T07:43:32;12.80;;;9.73;;
6113;SDS011;3087;48.392;10.836;2023-01-19T07:45:58;15.27;;;10.30;;
6113;SDS011;3087;48.392;10.836;2023-01-19T07:48:25;12.70;;;9.30;;
6113;SDS011;3087;48.392;10.836;2023-01-19T07:50:51;13.03;;;9.57;;
6113;SDS011;3087;48.392;10.836;2023-01-19T07:53:16;12.27;;;9.53;;
6113;SDS011;3087;48.392;10.836;2023-01-19T07:55:42;14.27;;;10.20;;
6113;SDS011;3087;48.392;10.836;2023-01-19T07:58:08;15.17;;;10.47;;
6113;SDS011;3087;48.392;10.836;2023-01-19T08:00:35;15.90;;;9.80;;
6113;SDS011;3087;48.392;10.836;2023-01-19T08:03:02;14.90;;;10.47;;
6113;SDS011;3087;48.392;10.836;2023-01-19T08:05:28;15.00;;;10.77;;
6113;SDS011;3087;48.392;10.836;2023-01-19T08:07:55;15.17;;;10.63;;
6113;SDS011;3087;48.392;10.836;2023-01-19T08:10:25;13.90;;;10.30;;
6113;SDS011;3087;48.392;10.836;2023-01-19T08:12:51;14.37;;;9.97;;
6113;SDS011;3087;48.392;10.836;2023-01-19T08:15:18;14.67;;;10.13;;
6113;SDS011;3087;48.392;10.836;2023-01-19T08:17:52;13.83;;;9.90;;
6113;SDS011;3087;48.392;10.836;2023-01-19T08:20:21;13.77;;;10.07;;
6113;SDS011;3087;48.392;10.836;2023-01-19T08:22:48;13.60;;;10.37;;
6113;SDS011;3087;48.392;10.836;2023-01-19T08:25:13;15.70;;;10.70;;
6113;SDS011;3087;48.392;10.836;2023-01-19T08:27:39;14.23;;;11.20;;
6113;SDS011;3087;48.392;10.836;2023-01-19T08:30:05;14.57;;;10.80;;
6113;SDS011;3087;48.392;10.836;2023-01-19T08:32:31;13.33;;;10.30;;
6113;SDS011;3087;48.392;10.836;2023-01-19T08:34:56;13.33;;;9.50;;
6113;SDS011;3087;48.392;10.836;2023-01-19T08:37:22;12.60;;;10.17;;
6113;SDS011;3087;48.392;10.836;2023-01-19T08:39:48;16.90;;;11.70;;
6113;SDS011;3087;48.392;10.836;2023-01-19T08:42:14;13.67;;;10.80;;
6113;SDS011;3087;48.392;10.836;2023-01-19T08:44:40;15.23;;;11.23;;
6113;SDS011;3087;48.392;10.836;2023-01-19T08:47:05;16.77;;;10.73;;
6113;SDS011;3087;48.392;10.836;2023-01-19T08:49:32;14.20;;;11.27;;
6113;SDS011;3087;48.392;10.836;2023-01-19T08:51:57;14.67;;;11.07;;
6113;SDS011;3087;48.392;10.836;2023-01-19T08:54:23;18.77;;;11.33;;
6113;SDS011;3087;48.392;10.836;2023-01-19T08:56:49;14.57;;;10.70;;
6113;SDS011;3087;48.392;10.836;2023-01-19T08:59:14;16.63;;;10.60;;
6113;SDS011;3087;48.392;10.836;2023-01-19T09:01:41;12.73;;;10.23;;
6113;SDS011;3087;48.392;10.836;2023-01-19T09:04:06;15.17;;;11.20;;
6113;SDS011;3087;48.392;10.836;2023-01-19T09:06:32;14.43;;;10.57;;
6113;SDS011;3087;48.392;10.836;2023-01-19T09:08:58;15.27;;;11.03;;
6113;SDS011;3087;48.392;10.836;2023-01-19T09:11:23;14.27;;;10.67;;
6113;SDS011;3087;48.392;10.836;2023-01-19T09:13:49;15.17;;;11.37;;
6113;SDS011;3087;48.392;10.836;2023-01-19T09:16:15;13.53;;;10.67;;
6113;SDS011;3087;48.392;10.836;2023-01-19T09:18:40;17.10;;;11.80;;
6113;SDS011;3087;48.392;10.836;2023-01-19T09:21:06;15.60;;;11.20;;
6113;SDS011;3087;48.392;10.836;2023-01-19T09:23:33;15.63;;;10.77;;
6113;SDS011;3087;48.392;10.836;2023-01-19T09:25:59;15.03;;;10.60;;
6113;SDS011;3087;48.392;10.836;2023-01-19T09:28:27;13.67;;;10.40;;
6113;SDS011;3087;48.392;10.836;2023-01-19T09:30:53;12.80;;;10.03;;
6113;SDS011;3087;48.392;10.836;2023-01-19T09:33:19;11.63;;;9.90;;
6113;SDS011;3087;48.392;10.836;2023-01-19T09:35:45;17.57;;;11.03;;
6113;SDS011;3087;48.392;10.836;2023-01-19T09:38:13;13.57;;;9.67;;
6113;SDS011;3087;48.392;10.836;2023-01-19T09:41:01;13.30;;;9.60;;
6113;SDS011;3087;48.392;10.836;2023-01-19T09:45:58;13.57;;;9.37;;
6113;SDS011;3087;48.392;10.836;2023-01-19T09:48:43;17.17;;;9.97;;
6113;SDS011;3087;48.392;10.836;2023-01-19T09:51:26;10.60;;;9.10;;
6113;SDS011;3087;48.392;10.836;2023-01-19T09:56:41;12.10;;;9.63;;
6113;SDS011;3087;48.392;10.836;2023-01-19T10:04:33;13.40;;;9.50;;
6113;SDS011;3087;48.392;10.836;2023-01-19T10:07:10;12.50;;;9.00;;
6113;SDS011;3087;48.392;10.836;2023-01-19T10:20:29;10.77;;;8.50;;
6113;SDS011;3087;48.392;10.836;2023-01-19T10:23:03;11.20;;;8.73;;
6113;SDS011;3087;48.392;10.836;2023-01-19T10:25:41;11.70;;;7.83;;
6113;SDS011;3087;48.392;10.836;2023-01-19T10:28:07;9.87;;;8.50;;
6113;SDS011;3087;48.392;10.836;2023-01-19T10:30:34;11.33;;;8.67;;
6113;SDS011;3087;48.392;10.836;2023-01-19T10:33:00;12.03;;;8.20;;
6113;SDS011;3087;48.392;10.836;2023-01-19T10:35:25;10.83;;;8.07;;
6113;SDS011;3087;48.392;10.836;2023-01-19T10:37:52;9.23;;;7.80;;
6113;SDS011;3087;48.392;10.836;2023-01-19T10:40:33;7.57;;;6.73;;
6113;SDS011;3087;48.392;10.836;2023-01-19T10:46:23;7.15;;;6.45;;
6113;SDS011;3087;48.392;10.836;2023-01-19T10:48:57;7.10;;;6.38;;
6113;SDS011;3087;48.392;10.836;2023-01-19T10:51:23;7.63;;;6.82;;
6113;SDS011;3087;48.392;10.836;2023-01-19T10:53:53;9.02;;;6.70;;
6113;SDS011;3087;48.392;10.836;2023-01-19T10:56:35;7.35;;;6.60;;
6113;SDS011;3087;48.392;10.836;2023-01-19T10:59:04;8.05;;;6.57;;
6113;SDS011;3087;48.392;10.836;2023-01-19T11:01:31;9.17;;;7.50;;
6113;SDS011;3087;48.392;10.836;2023-01-19T11:04:01;7.78;;;6.60;;
6113;SDS011;3087;48.392;10.836;2023-01-19T11:06:44;8.77;;;6.07;;
6113;SDS011;3087;48.392;10.836;2023-01-19T11:09:17;8.45;;;7.65;;
6113;SDS011;3087;48.392;10.836;2023-01-19T11:11:53;9.48;;;6.85;;
6113;SDS011;3087;48.392;10.836;2023-01-19T11:14:21;9.50;;;6.97;;
6113;SDS011;3087;48.392;10.836;2023-01-19T11:16:50;7.77;;;6.93;;
6113;SDS011;3087;48.392;10.836;2023-01-19T11:19:19;8.27;;;6.65;;
6113;SDS011;3087;48.392;10.836;2023-01-19T11:21:49;7.83;;;6.90;;
6113;SDS011;3087;48.392;10.836;2023-01-19T11:24:15;7.50;;;6.80;;
6113;SDS011;3087;48.392;10.836;2023-01-19T11:29:24;8.07;;;6.53;;
6113;SDS011;3087;48.392;10.836;2023-01-19T11:31:51;8.40;;;6.50;;
6113;SDS011;3087;48.392;10.836;2023-01-19T11:34:22;7.10;;;5.90;;
6113;SDS011;3087;48.392;10.836;2023-01-19T11:36:58;7.03;;;5.53;;
6113;SDS011;3087;48.392;10.836;2023-01-19T11:39:27;7.40;;;5.70;;
6113;SDS011;3087;48.392;10.836;2023-01-19T11:41:55;8.70;;;6.60;;
6113;SDS011;3087;48.392;10.836;2023-01-19T11:46:59;7.57;;;5.60;;
6113;SDS011;3087;48.392;10.836;2023-01-19T11:52:25;8.93;;;5.97;;
6113;SDS011;3087;48.392;10.836;2023-01-19T11:54:56;7.47;;;5.40;;
6113;SDS011;3087;48.392;10.836;2023-01-19T11:57:26;7.30;;;5.53;;
6113;SDS011;3087;48.392;10.836;2023-01-19T11:59:52;8.10;;;5.93;;
6113;SDS011;3087;48.392;10.836;2023-01-19T12:02:26;6.07;;;5.37;;
6113;SDS011;3087;48.392;10.836;2023-01-19T12:04:58;7.10;;;5.40;;
6113;SDS011;3087;48.392;10.836;2023-01-19T12:07:29;7.17;;;5.23;;
6113;SDS011;3087;48.392;10.836;2023-01-19T12:10:22;10.80;;;6.33;;
6113;SDS011;3087;48.392;10.836;2023-01-19T12:12:54;8.33;;;6.50;;
6113;SDS011;3087;48.392;10.836;2023-01-19T12:15:25;10.10;;;5.97;;
6113;SDS011;3087;48.392;10.836;2023-01-19T12:17:57;11.97;;;6.60;;
6113;SDS011;3087;48.392;10.836;2023-01-19T12:23:18;6.57;;;5.87;;
6113;SDS011;3087;48.392;10.836;2023-01-19T12:28:40;12.33;;;6.97;;
6113;SDS011;3087;48.392;10.836;2023-01-19T12:31:07;9.90;;;6.23;;
6113;SDS011;3087;48.392;10.836;2023-01-19T12:33:35;7.40;;;6.53;;
6113;SDS011;3087;48.392;10.836;2023-01-19T12:41:56;7.57;;;5.53;;
6113;SDS011;3087;48.392;10.836;2023-01-19T12:51:38;18.33;;;7.33;;
6113;SDS011;3087;48.392;10.836;2023-01-19T12:54:05;10.70;;;6.60;;
6113;SDS011;3087;48.392;10.836;2023-01-19T12:56:33;9.63;;;6.33;;
6113;SDS011;3087;48.392;10.836;2023-01-19T12:59:00;10.70;;;6.97;;
6113;SDS011;3087;48.392;10.836;2023-01-19T13:01:27;9.00;;;6.63;;
6113;SDS011;3087;48.392;10.836;2023-01-19T13:03:57;8.93;;;6.47;;
6113;SDS011;3087;48.392;10.836;2023-01-19T13:12:21;9.03;;;5.50;;
6113;SDS011;3087;48.392;10.836;2023-01-19T13:14:49;11.07;;;5.50;;
6113;SDS011;3087;48.392;10.836;2023-01-19T13:20:17;8.37;;;6.23;;
6113;SDS011;3087;48.392;10.836;2023-01-19T13:22:49;8.10;;;6.00;;
6113;SDS011;3087;48.392;10.836;2023-01-19T13:27:52;8.57;;;5.73;;
6113;SDS011;3087;48.392;10.836;2023-01-19T13:30:18;8.37;;;6.30;;
6113;SDS011;3087;48.392;10.836;2023-01-19T13:32:48;7.83;;;5.73;;
6113;SDS011;3087;48.392;10.836;2023-01-19T13:35:16;7.70;;;5.90;;
6113;SDS011;3087;48.392;10.836;2023-01-19T13:37:43;7.57;;;5.90;;
6113;SDS011;3087;48.392;10.836;2023-01-19T13:40:16;8.53;;;6.50;;
6113;SDS011;3087;48.392;10.836;2023-01-19T13:42:47;8.87;;;6.67;;
6113;SDS011;3087;48.392;10.836;2023-01-19T13:45:16;11.63;;;6.07;;
6113;SDS011;3087;48.392;10.836;2023-01-19T13:48:01;10.37;;;6.10;;
6113;SDS011;3087;48.392;10.836;2023-01-19T13:50:31;8.90;;;5.17;;
6113;SDS011;3087;48.392;10.836;2023-01-19T13:52:58;9.17;;;6.00;;
6113;SDS011;3087;48.392;10.836;2023-01-19T13:55:26;8.20;;;5.73;;
6113;SDS011;3087;48.392;10.836;2023-01-19T13:57:53;9.87;;;5.23;;
6113;SDS011;3087;48.392;10.836;2023-01-19T14:00:25;10.80;;;6.13;;
6113;SDS011;3087;48.392;10.836;2023-01-19T14:02:58;8.37;;;5.67;;
6113;SDS011;3087;48.392;10.836;2023-01-19T14:05:35;7.53;;;5.53;;
6113;SDS011;3087;48.392;10.836;2023-01-19T14:13:18;10.50;;;6.17;;
6113;SDS011;3087;48.392;10.836;2023-01-19T14:16:00;10.03;;;5.63;;
6113;SDS011;3087;48.392;10.836;2023-01-19T14:18:30;11.27;;;6.03;;
6113;SDS011;3087;48.392;10.836;2023-01-19T14:20:59;13.40;;;6.23;;
6113;SDS011;3087;48.392;10.836;2023-01-19T14:23:35;11.63;;;6.00;;
6113;SDS011;3087;48.392;10.836;2023-01-19T14:29:14;7.73;;;5.77;;
6113;SDS011;3087;48.392;10.836;2023-01-19T14:34:52;9.93;;;5.70;;
6113;SDS011;3087;48.392;10.836;2023-01-19T14:37:35;9.97;;;5.80;;
6113;SDS011;3087;48.392;10.836;2023-01-19T14:45:18;10.73;;;6.90;;
6113;SDS011;3087;48.392;10.836;2023-01-19T14:47:52;9.37;;;5.00;;
6113;SDS011;3087;48.392;10.836;2023-01-19T14:50:28;7.30;;;5.80;;
6113;SDS011;3087;48.392;10.836;2023-01-19T14:53:11;10.10;;;5.60;;
6113;SDS011;3087;48.392;10.836;2023-01-19T14:55:44;9.40;;;6.43;;
6113;SDS011;3087;48.392;10.836;2023-01-19T14:58:13;7.97;;;5.97;;
6113;SDS011;3087;48.392;10.836;2023-01-19T15:00:43;10.27;;;5.30;;
6113;SDS011;3087;48.392;10.836;2023-01-19T15:03:09;8.23;;;5.40;;
6113;SDS011;3087;48.392;10.836;2023-01-19T15:05:39;7.70;;;5.43;;
6113;SDS011;3087;48.392;10.836;2023-01-19T15:08:11;9.97;;;6.37;;
6113;SDS011;3087;48.392;10.836;2023-01-19T15:10:55;6.80;;;5.73;;
6113;SDS011;3087;48.392;10.836;2023-01-19T15:13:22;8.50;;;6.00;;
6113;SDS011;3087;48.392;10.836;2023-01-19T15:15:49;10.03;;;5.90;;
6113;SDS011;3087;48.392;10.836;2023-01-19T15:18:17;7.33;;;5.47;;
6113;SDS011;3087;48.392;10.836;2023-01-19T15:20:46;7.17;;;5.60;;
6113;SDS011;3087;48.392;10.836;2023-01-19T15:23:11;10.93;;;5.87;;
6113;SDS011;3087;48.392;10.836;2023-01-19T15:25:37;9.47;;;5.70;;
6113;SDS011;3087;48.392;10.836;2023-01-19T15:28:14;7.77;;;5.20;;
6113;SDS011;3087;48.392;10.836;2023-01-19T15:30:42;8.93;;;6.00;;
6113;SDS011;3087;48.392;10.836;2023-01-19T15:33:11;8.90;;;5.77;;
6113;SDS011;3087;48.392;10.836;2023-01-19T15:35:43;7.27;;;5.60;;
6113;SDS011;3087;48.392;10.836;2023-01-19T15:38:09;7.47;;;5.77;;
6113;SDS011;3087;48.392;10.836;2023-01-19T15:40:34;8.77;;;5.50;;
6113;SDS011;3087;48.392;10.836;2023-01-19T15:43:00;9.40;;;5.40;;
6113;SDS011;3087;48.392;10.836;2023-01-19T15:45:41;10.90;;;5.37;;
6113;SDS011;3087;48.392;10.836;2023-01-19T15:48:24;10.37;;;5.53;;
6113;SDS011;3087;48.392;10.836;2023-01-19T15:50:50;7.73;;;5.40;;
6113;SDS011;3087;48.392;10.836;2023-01-19T15:53:17;8.80;;;5.77;;
6113;SDS011;3087;48.392;10.836;2023-01-19T15:55:47;6.60;;;5.53;;
6113;SDS011;3087;48.392;10.836;2023-01-19T15:58:14;6.90;;;6.20;;
6113;SDS011;3087;48.392;10.836;2023-01-19T16:00:40;14.57;;;6.83;;
6113;SDS011;3087;48.392;10.836;2023-01-19T16:03:06;14.50;;;6.70;;
6113;SDS011;3087;48.392;10.836;2023-01-19T16:05:34;10.20;;;6.33;;
6113;SDS011;3087;48.392;10.836;2023-01-19T16:07:59;10.03;;;6.43;;
6113;SDS011;3087;48.392;10.836;2023-01-19T16:10:25;9.93;;;6.17;;
6113;SDS011;3087;48.392;10.836;2023-01-19T16:12:50;11.00;;;6.23;;
6113;SDS011;3087;48.392;10.836;2023-01-19T16:15:16;9.97;;;6.13;;
6113;SDS011;3087;48.392;10.836;2023-01-19T16:17:42;8.10;;;6.43;;
6113;SDS011;3087;48.392;10.836;2023-01-19T16:20:09;12.87;;;8.20;;
6113;SDS011;3087;48.392;10.836;2023-01-19T16:22:35;10.10;;;6.10;;
6113;SDS011;3087;48.392;10.836;2023-01-19T16:25:02;13.40;;;7.10;;
6113;SDS011;3087;48.392;10.836;2023-01-19T16:27:28;7.73;;;6.40;;